sensor_id;sensor_type;location;lat;lon;timestamp;temperature;humidity
4840;DHT22;2434;48.486;7.964;2022-08-04T00:00:46;25.50;39.00
4840;DHT22;2434;48.486;7.964;2022-08-04T00:03:21;25.50;39.30
4840;DHT22;2434;48.486;7.964;2022-08-04T00:05:58;25.50;39.70
4840;DHT22;2434;48.486;7.964;2022-08-04T00:08:39;25.40;39.30
4840;DHT22;2434;48.486;7.964;2022-08-04T00:11:13;25.40;39.60
4840;DHT22;2434;48.486;7.964;2022-08-04T00:13:53;25.40;40.00
4840;DHT22;2434;48.486;7.964;2022-08-04T00:16:32;25.30;39.50
4840;DHT22;2434;48.486;7.964;2022-08-04T00:19:09;25.30;40.30
4840;DHT22;2434;48.486;7.964;2022-08-04T00:21:40;25.30;39.80
4840;DHT22;2434;48.486;7.964;2022-08-04T00:24:10;25.30;40.20
4840;DHT22;2434;48.486;7.964;2022-08-04T00:26:42;25.30;40.10
4840;DHT22;2434;48.486;7.964;2022-08-04T00:29:11;25.20;39.80
4840;DHT22;2434;48.486;7.964;2022-08-04T00:31:41;25.20;39.80
4840;DHT22;2434;48.486;7.964;2022-08-04T00:34:25;25.20;40.40
4840;DHT22;2434;48.486;7.964;2022-08-04T00:36:54;25.10;40.40
4840;DHT22;2434;48.486;7.964;2022-08-04T00:39:24;25.10;40.30
4840;DHT22;2434;48.486;7.964;2022-08-04T00:42:22;25.10;40.40
4840;DHT22;2434;48.486;7.964;2022-08-04T00:48:35;25.00;41.20
4840;DHT22;2434;48.486;7.964;2022-08-04T00:51:23;25.00;41.20
4840;DHT22;2434;48.486;7.964;2022-08-04T00:54:00;24.90;41.30
4840;DHT22;2434;48.486;7.964;2022-08-04T00:56:45;24.80;41.30
4840;DHT22;2434;48.486;7.964;2022-08-04T00:59:31;24.80;41.10
4840;DHT22;2434;48.486;7.964;2022-08-04T01:02:08;24.70;41.20
4840;DHT22;2434;48.486;7.964;2022-08-04T01:04:48;24.70;41.50
4840;DHT22;2434;48.486;7.964;2022-08-04T01:10:23;24.50;41.90
4840;DHT22;2434;48.486;7.964;2022-08-04T01:13:13;24.40;42.50
4840;DHT22;2434;48.486;7.964;2022-08-04T01:15:50;24.40;42.90
4840;DHT22;2434;48.486;7.964;2022-08-04T01:18:32;24.40;43.10
4840;DHT22;2434;48.486;7.964;2022-08-04T01:27:10;24.40;43.00
4840;DHT22;2434;48.486;7.964;2022-08-04T01:29:54;24.40;43.30
4840;DHT22;2434;48.486;7.964;2022-08-04T01:32:26;24.30;42.60
4840;DHT22;2434;48.486;7.964;2022-08-04T01:34:59;24.20;42.50
4840;DHT22;2434;48.486;7.964;2022-08-04T01:37:41;24.20;43.00
4840;DHT22;2434;48.486;7.964;2022-08-04T01:40:15;24.20;43.00
4840;DHT22;2434;48.486;7.964;2022-08-04T01:42:44;24.20;43.20
4840;DHT22;2434;48.486;7.964;2022-08-04T01:45:14;24.20;43.40
4840;DHT22;2434;48.486;7.964;2022-08-04T01:47:49;24.10;43.20
4840;DHT22;2434;48.486;7.964;2022-08-04T01:50:17;24.00;44.20
4840;DHT22;2434;48.486;7.964;2022-08-04T01:52:46;23.90;43.70
4840;DHT22;2434;48.486;7.964;2022-08-04T01:55:17;23.90;44.40
4840;DHT22;2434;48.486;7.964;2022-08-04T01:57:47;23.80;44.70
4840;DHT22;2434;48.486;7.964;2022-08-04T02:00:19;23.80;45.30
4840;DHT22;2434;48.486;7.964;2022-08-04T02:02:49;23.70;45.20
4840;DHT22;2434;48.486;7.964;2022-08-04T02:05:19;23.80;45.30
4840;DHT22;2434;48.486;7.964;2022-08-04T02:08:08;23.70;44.90
4840;DHT22;2434;48.486;7.964;2022-08-04T02:10:52;23.80;45.20
4840;DHT22;2434;48.486;7.964;2022-08-04T02:13:29;23.80;45.10
4840;DHT22;2434;48.486;7.964;2022-08-04T02:16:04;23.80;45.40
4840;DHT22;2434;48.486;7.964;2022-08-04T02:18:42;23.70;44.80
4840;DHT22;2434;48.486;7.964;2022-08-04T02:21:17;23.70;45.20
4840;DHT22;2434;48.486;7.964;2022-08-04T02:24:01;23.60;45.10
4840;DHT22;2434;48.486;7.964;2022-08-04T02:26:33;23.50;45.30
4840;DHT22;2434;48.486;7.964;2022-08-04T02:29:07;23.40;45.70
4840;DHT22;2434;48.486;7.964;2022-08-04T02:31:45;23.40;46.20
4840;DHT22;2434;48.486;7.964;2022-08-04T02:34:19;23.30;46.30
4840;DHT22;2434;48.486;7.964;2022-08-04T02:36:51;23.20;46.60
4840;DHT22;2434;48.486;7.964;2022-08-04T02:39:21;23.20;46.70
4840;DHT22;2434;48.486;7.964;2022-08-04T02:41:52;23.20;47.20
4840;DHT22;2434;48.486;7.964;2022-08-04T02:44:22;23.20;47.00
4840;DHT22;2434;48.486;7.964;2022-08-04T02:46:52;23.20;47.40
4840;DHT22;2434;48.486;7.964;2022-08-04T02:49:22;23.20;47.10
4840;DHT22;2434;48.486;7.964;2022-08-04T02:51:59;23.20;47.20
4840;DHT22;2434;48.486;7.964;2022-08-04T02:54:32;23.20;47.00
4840;DHT22;2434;48.486;7.964;2022-08-04T02:57:03;23.20;47.40
4840;DHT22;2434;48.486;7.964;2022-08-04T02:59:47;23.20;47.10
4840;DHT22;2434;48.486;7.964;2022-08-04T03:02:28;23.10;46.90
4840;DHT22;2434;48.486;7.964;2022-08-04T03:05:04;23.00;47.30
4840;DHT22;2434;48.486;7.964;2022-08-04T03:08:23;23.00;47.00
4840;DHT22;2434;48.486;7.964;2022-08-04T03:11:09;22.90;47.50
4840;DHT22;2434;48.486;7.964;2022-08-04T03:14:13;23.00;47.50
4840;DHT22;2434;48.486;7.964;2022-08-04T03:17:19;23.00;47.40
4840;DHT22;2434;48.486;7.964;2022-08-04T03:20:31;23.00;47.40
4840;DHT22;2434;48.486;7.964;2022-08-04T03:23:23;23.00;47.90
4840;DHT22;2434;48.486;7.964;2022-08-04T03:26:13;23.00;48.00
4840;DHT22;2434;48.486;7.964;2022-08-04T03:29:14;23.00;47.90
4840;DHT22;2434;48.486;7.964;2022-08-04T03:32:32;23.00;47.80
4840;DHT22;2434;48.486;7.964;2022-08-04T03:35:40;23.00;47.30
4840;DHT22;2434;48.486;7.964;2022-08-04T03:38:29;23.00;47.50
4840;DHT22;2434;48.486;7.964;2022-08-04T03:41:32;22.90;47.30
4840;DHT22;2434;48.486;7.964;2022-08-04T03:44:57;23.00;47.40
4840;DHT22;2434;48.486;7.964;2022-08-04T03:48:07;23.00;47.10
4840;DHT22;2434;48.486;7.964;2022-08-04T03:54:42;23.00;46.50
4840;DHT22;2434;48.486;7.964;2022-08-04T03:57:44;22.90;46.60
4840;DHT22;2434;48.486;7.964;2022-08-04T04:00:17;22.80;47.70
4840;DHT22;2434;48.486;7.964;2022-08-04T04:03:09;22.50;48.40
4840;DHT22;2434;48.486;7.964;2022-08-04T04:09:27;22.00;51.50
4840;DHT22;2434;48.486;7.964;2022-08-04T04:12:41;22.30;50.30
4840;DHT22;2434;48.486;7.964;2022-08-04T04:15:35;22.40;49.40
4840;DHT22;2434;48.486;7.964;2022-08-04T04:18:18;22.50;48.80
4840;DHT22;2434;48.486;7.964;2022-08-04T04:21:16;22.60;48.90
4840;DHT22;2434;48.486;7.964;2022-08-04T04:27:08;22.50;48.00
4840;DHT22;2434;48.486;7.964;2022-08-04T04:30:04;22.50;48.40
4840;DHT22;2434;48.486;7.964;2022-08-04T04:32:55;22.40;48.50
4840;DHT22;2434;48.486;7.964;2022-08-04T04:35:31;22.40;48.80
4840;DHT22;2434;48.486;7.964;2022-08-04T04:38:26;22.40;49.50
4840;DHT22;2434;48.486;7.964;2022-08-04T04:41:04;22.30;49.80
4840;DHT22;2434;48.486;7.964;2022-08-04T04:43:56;22.40;49.90
4840;DHT22;2434;48.486;7.964;2022-08-04T04:46:36;22.40;50.00
4840;DHT22;2434;48.486;7.964;2022-08-04T04:49:13;22.40;50.00
4840;DHT22;2434;48.486;7.964;2022-08-04T04:51:50;22.40;50.10
4840;DHT22;2434;48.486;7.964;2022-08-04T04:54:29;22.40;50.30
4840;DHT22;2434;48.486;7.964;2022-08-04T04:57:06;22.40;50.50
4840;DHT22;2434;48.486;7.964;2022-08-04T04:59:46;22.40;50.40
4840;DHT22;2434;48.486;7.964;2022-08-04T05:02:42;22.40;50.60
4840;DHT22;2434;48.486;7.964;2022-08-04T05:05:55;22.40;51.10
4840;DHT22;2434;48.486;7.964;2022-08-04T05:08:39;22.40;51.50
4840;DHT22;2434;48.486;7.964;2022-08-04T05:14:21;22.40;52.00
4840;DHT22;2434;48.486;7.964;2022-08-04T05:17:16;22.40;52.40
4840;DHT22;2434;48.486;7.964;2022-08-04T05:19:52;22.40;51.50
4840;DHT22;2434;48.486;7.964;2022-08-04T05:22:27;22.50;51.80
4840;DHT22;2434;48.486;7.964;2022-08-04T05:25:02;22.50;52.00
4840;DHT22;2434;48.486;7.964;2022-08-04T05:27:36;22.40;51.90
4840;DHT22;2434;48.486;7.964;2022-08-04T05:30:07;22.40;51.70
4840;DHT22;2434;48.486;7.964;2022-08-04T05:32:44;22.50;50.80
4840;DHT22;2434;48.486;7.964;2022-08-04T05:35:19;22.60;49.90
4840;DHT22;2434;48.486;7.964;2022-08-04T05:38:10;22.70;49.50
4840;DHT22;2434;48.486;7.964;2022-08-04T05:40:40;22.80;50.50
4840;DHT22;2434;48.486;7.964;2022-08-04T05:43:09;22.80;50.70
4840;DHT22;2434;48.486;7.964;2022-08-04T05:45:39;22.80;50.10
4840;DHT22;2434;48.486;7.964;2022-08-04T05:48:10;22.80;50.40
4840;DHT22;2434;48.486;7.964;2022-08-04T05:50:39;22.80;49.80
4840;DHT22;2434;48.486;7.964;2022-08-04T05:53:09;22.90;50.50
4840;DHT22;2434;48.486;7.964;2022-08-04T05:55:38;23.00;48.60
4840;DHT22;2434;48.486;7.964;2022-08-04T05:58:27;22.90;49.40
4840;DHT22;2434;48.486;7.964;2022-08-04T06:00:58;22.90;49.60
4840;DHT22;2434;48.486;7.964;2022-08-04T06:03:31;23.00;49.20
4840;DHT22;2434;48.486;7.964;2022-08-04T06:06:02;23.00;48.70
4840;DHT22;2434;48.486;7.964;2022-08-04T06:08:31;23.00;51.10
4840;DHT22;2434;48.486;7.964;2022-08-04T06:11:03;23.20;52.60
4840;DHT22;2434;48.486;7.964;2022-08-04T06:13:39;23.30;53.00
4840;DHT22;2434;48.486;7.964;2022-08-04T06:16:17;23.30;53.00
4840;DHT22;2434;48.486;7.964;2022-08-04T06:19:02;23.40;50.80
4840;DHT22;2434;48.486;7.964;2022-08-04T06:21:53;23.40;51.80
4840;DHT22;2434;48.486;7.964;2022-08-04T06:24:25;23.50;53.30
4840;DHT22;2434;48.486;7.964;2022-08-04T06:26:56;23.50;46.70
4840;DHT22;2434;48.486;7.964;2022-08-04T06:29:25;23.60;42.70
4840;DHT22;2434;48.486;7.964;2022-08-04T06:32:01;23.70;43.60
4840;DHT22;2434;48.486;7.964;2022-08-04T06:35:02;23.80;42.90
4840;DHT22;2434;48.486;7.964;2022-08-04T06:37:32;23.80;43.00
4840;DHT22;2434;48.486;7.964;2022-08-04T06:40:11;24.00;41.90
4840;DHT22;2434;48.486;7.964;2022-08-04T06:42:59;24.00;42.80
4840;DHT22;2434;48.486;7.964;2022-08-04T06:45:27;24.10;41.40
4840;DHT22;2434;48.486;7.964;2022-08-04T06:47:57;24.20;40.20
4840;DHT22;2434;48.486;7.964;2022-08-04T06:50:29;24.30;39.90
4840;DHT22;2434;48.486;7.964;2022-08-04T06:53:18;24.40;39.90
4840;DHT22;2434;48.486;7.964;2022-08-04T06:55:47;24.40;39.40
4840;DHT22;2434;48.486;7.964;2022-08-04T06:58:17;24.50;40.00
4840;DHT22;2434;48.486;7.964;2022-08-04T07:00:46;24.70;38.40
4840;DHT22;2434;48.486;7.964;2022-08-04T07:03:17;24.90;37.80
4840;DHT22;2434;48.486;7.964;2022-08-04T07:05:50;25.00;39.10
4840;DHT22;2434;48.486;7.964;2022-08-04T07:08:19;25.10;38.10
4840;DHT22;2434;48.486;7.964;2022-08-04T07:10:49;25.20;37.50
4840;DHT22;2434;48.486;7.964;2022-08-04T07:13:20;25.10;38.00
4840;DHT22;2434;48.486;7.964;2022-08-04T07:15:49;25.20;36.50
4840;DHT22;2434;48.486;7.964;2022-08-04T07:18:18;25.30;36.00
4840;DHT22;2434;48.486;7.964;2022-08-04T07:20:47;25.30;36.50
4840;DHT22;2434;48.486;7.964;2022-08-04T07:23:22;25.30;36.60
4840;DHT22;2434;48.486;7.964;2022-08-04T07:25:52;25.40;35.80
4840;DHT22;2434;48.486;7.964;2022-08-04T07:28:39;25.40;36.80
4840;DHT22;2434;48.486;7.964;2022-08-04T07:31:13;25.40;36.50
4840;DHT22;2434;48.486;7.964;2022-08-04T07:34:01;25.50;36.10
4840;DHT22;2434;48.486;7.964;2022-08-04T07:36:49;25.50;37.20
4840;DHT22;2434;48.486;7.964;2022-08-04T07:39:22;25.60;35.40
4840;DHT22;2434;48.486;7.964;2022-08-04T07:41:56;25.80;36.20
4840;DHT22;2434;48.486;7.964;2022-08-04T07:44:28;26.00;34.70
4840;DHT22;2434;48.486;7.964;2022-08-04T07:46:57;26.10;35.70
4840;DHT22;2434;48.486;7.964;2022-08-04T07:49:26;26.10;34.60
4840;DHT22;2434;48.486;7.964;2022-08-04T07:52:15;26.10;34.30
4840;DHT22;2434;48.486;7.964;2022-08-04T07:54:44;26.20;34.80
4840;DHT22;2434;48.486;7.964;2022-08-04T07:57:15;26.30;34.30
4840;DHT22;2434;48.486;7.964;2022-08-04T08:00:05;26.40;33.50
4840;DHT22;2434;48.486;7.964;2022-08-04T08:02:37;26.60;32.90
4840;DHT22;2434;48.486;7.964;2022-08-04T08:05:08;26.80;31.90
4840;DHT22;2434;48.486;7.964;2022-08-04T08:07:38;26.80;33.50
4840;DHT22;2434;48.486;7.964;2022-08-04T08:10:21;26.80;33.50
4840;DHT22;2434;48.486;7.964;2022-08-04T08:12:50;26.90;32.00
4840;DHT22;2434;48.486;7.964;2022-08-04T08:15:19;27.10;32.20
4840;DHT22;2434;48.486;7.964;2022-08-04T08:17:48;27.30;30.80
4840;DHT22;2434;48.486;7.964;2022-08-04T08:20:30;27.20;31.40
4840;DHT22;2434;48.486;7.964;2022-08-04T08:23:00;27.50;30.60
4840;DHT22;2434;48.486;7.964;2022-08-04T08:25:30;27.60;30.80
4840;DHT22;2434;48.486;7.964;2022-08-04T08:27:59;27.80;29.80
4840;DHT22;2434;48.486;7.964;2022-08-04T08:30:29;27.80;29.90
4840;DHT22;2434;48.486;7.964;2022-08-04T08:33:04;27.70;31.40
4840;DHT22;2434;48.486;7.964;2022-08-04T08:35:40;27.70;31.40
4840;DHT22;2434;48.486;7.964;2022-08-04T08:38:27;27.80;31.00
4840;DHT22;2434;48.486;7.964;2022-08-04T08:41:27;27.90;30.90
4840;DHT22;2434;48.486;7.964;2022-08-04T08:47:15;28.00;28.70
4840;DHT22;2434;48.486;7.964;2022-08-04T08:49:59;28.10;29.60
4840;DHT22;2434;48.486;7.964;2022-08-04T08:52:48;28.20;30.50
4840;DHT22;2434;48.486;7.964;2022-08-04T08:55:39;28.50;29.90
4840;DHT22;2434;48.486;7.964;2022-08-04T08:58:28;29.00;26.40
4840;DHT22;2434;48.486;7.964;2022-08-04T09:01:16;29.20;25.40
4840;DHT22;2434;48.486;7.964;2022-08-04T09:04:12;29.20;26.20
4840;DHT22;2434;48.486;7.964;2022-08-04T09:07:05;29.30;26.00
4840;DHT22;2434;48.486;7.964;2022-08-04T09:09:51;29.40;26.50
4840;DHT22;2434;48.486;7.964;2022-08-04T09:12:28;29.60;26.90
4840;DHT22;2434;48.486;7.964;2022-08-04T09:15:03;29.70;24.60
4840;DHT22;2434;48.486;7.964;2022-08-04T09:17:36;29.70;25.00
4840;DHT22;2434;48.486;7.964;2022-08-04T09:20:15;29.80;26.50
4840;DHT22;2434;48.486;7.964;2022-08-04T09:22:49;30.00;25.30
4840;DHT22;2434;48.486;7.964;2022-08-04T09:25:21;30.10;25.10
4840;DHT22;2434;48.486;7.964;2022-08-04T09:27:54;30.20;25.00
4840;DHT22;2434;48.486;7.964;2022-08-04T09:30:37;30.30;24.10
4840;DHT22;2434;48.486;7.964;2022-08-04T09:33:17;30.50;23.40
4840;DHT22;2434;48.486;7.964;2022-08-04T09:36:14;30.50;24.50
4840;DHT22;2434;48.486;7.964;2022-08-04T09:39:10;30.50;25.00
4840;DHT22;2434;48.486;7.964;2022-08-04T09:41:50;30.80;23.30
4840;DHT22;2434;48.486;7.964;2022-08-04T09:44:27;30.90;23.40
4840;DHT22;2434;48.486;7.964;2022-08-04T09:47:19;30.90;24.10
4840;DHT22;2434;48.486;7.964;2022-08-04T09:50:14;31.00;23.00
4840;DHT22;2434;48.486;7.964;2022-08-04T09:52:52;31.00;22.70
4840;DHT22;2434;48.486;7.964;2022-08-04T09:55:33;31.10;22.80
4840;DHT22;2434;48.486;7.964;2022-08-04T09:58:27;31.20;22.80
4840;DHT22;2434;48.486;7.964;2022-08-04T10:01:01;31.50;21.10
4840;DHT22;2434;48.486;7.964;2022-08-04T10:03:33;31.50;21.70
4840;DHT22;2434;48.486;7.964;2022-08-04T10:06:09;31.50;20.40
4840;DHT22;2434;48.486;7.964;2022-08-04T10:08:55;31.70;22.80
4840;DHT22;2434;48.486;7.964;2022-08-04T10:11:36;31.80;17.30
4840;DHT22;2434;48.486;7.964;2022-08-04T10:14:35;31.90;20.00
4840;DHT22;2434;48.486;7.964;2022-08-04T10:17:15;32.00;17.90
4840;DHT22;2434;48.486;7.964;2022-08-04T10:19:52;31.90;17.00
4840;DHT22;2434;48.486;7.964;2022-08-04T10:22:26;32.00;17.50
4840;DHT22;2434;48.486;7.964;2022-08-04T10:25:28;32.20;14.60
4840;DHT22;2434;48.486;7.964;2022-08-04T10:28:20;32.10;16.60
4840;DHT22;2434;48.486;7.964;2022-08-04T10:30:54;32.20;17.50
4840;DHT22;2434;48.486;7.964;2022-08-04T10:33:30;32.40;18.70
4840;DHT22;2434;48.486;7.964;2022-08-04T10:36:02;32.20;18.30
4840;DHT22;2434;48.486;7.964;2022-08-04T10:38:34;32.30;17.20
4840;DHT22;2434;48.486;7.964;2022-08-04T10:41:11;32.30;19.20
4840;DHT22;2434;48.486;7.964;2022-08-04T10:43:45;32.50;17.70
4840;DHT22;2434;48.486;7.964;2022-08-04T10:46:18;32.70;17.90
4840;DHT22;2434;48.486;7.964;2022-08-04T10:48:54;32.90;15.60
4840;DHT22;2434;48.486;7.964;2022-08-04T10:51:29;33.20;16.20
4840;DHT22;2434;48.486;7.964;2022-08-04T10:54:38;33.30;16.10
4840;DHT22;2434;48.486;7.964;2022-08-04T10:57:14;33.30;15.00
4840;DHT22;2434;48.486;7.964;2022-08-04T10:59:52;33.30;15.00
4840;DHT22;2434;48.486;7.964;2022-08-04T11:02:42;33.20;15.90
4840;DHT22;2434;48.486;7.964;2022-08-04T11:05:19;33.20;15.70
4840;DHT22;2434;48.486;7.964;2022-08-04T11:07:55;33.30;15.00
4840;DHT22;2434;48.486;7.964;2022-08-04T11:10:28;33.30;16.90
4840;DHT22;2434;48.486;7.964;2022-08-04T11:13:02;33.20;14.70
4840;DHT22;2434;48.486;7.964;2022-08-04T11:15:35;33.20;15.70
4840;DHT22;2434;48.486;7.964;2022-08-04T11:18:09;33.40;15.10
4840;DHT22;2434;48.486;7.964;2022-08-04T11:20:49;33.40;15.10
4840;DHT22;2434;48.486;7.964;2022-08-04T11:23:22;33.70;14.20
4840;DHT22;2434;48.486;7.964;2022-08-04T11:25:58;33.70;14.50
4840;DHT22;2434;48.486;7.964;2022-08-04T11:28:37;33.70;16.10
4840;DHT22;2434;48.486;7.964;2022-08-04T11:31:12;33.90;13.90
4840;DHT22;2434;48.486;7.964;2022-08-04T11:33:52;33.90;15.50
4840;DHT22;2434;48.486;7.964;2022-08-04T11:36:31;34.00;14.60
4840;DHT22;2434;48.486;7.964;2022-08-04T11:39:06;34.30;13.60
4840;DHT22;2434;48.486;7.964;2022-08-04T11:41:41;34.40;11.60
4840;DHT22;2434;48.486;7.964;2022-08-04T11:44:21;34.40;12.30
4840;DHT22;2434;48.486;7.964;2022-08-04T11:46:53;34.20;12.80
4840;DHT22;2434;48.486;7.964;2022-08-04T11:49:30;34.10;13.60
4840;DHT22;2434;48.486;7.964;2022-08-04T11:52:21;34.10;13.70
4840;DHT22;2434;48.486;7.964;2022-08-04T11:54:51;34.20;13.50
4840;DHT22;2434;48.486;7.964;2022-08-04T11:57:21;34.00;12.70
4840;DHT22;2434;48.486;7.964;2022-08-04T12:00:05;34.00;13.80
4840;DHT22;2434;48.486;7.964;2022-08-04T12:03:03;34.30;12.80
4840;DHT22;2434;48.486;7.964;2022-08-04T12:05:35;34.50;12.40
4840;DHT22;2434;48.486;7.964;2022-08-04T12:08:25;34.30;12.60
4840;DHT22;2434;48.486;7.964;2022-08-04T12:11:08;34.30;13.30
4840;DHT22;2434;48.486;7.964;2022-08-04T12:13:45;34.70;13.60
4840;DHT22;2434;48.486;7.964;2022-08-04T12:16:19;35.00;12.00
4840;DHT22;2434;48.486;7.964;2022-08-04T12:18:58;35.30;11.60
4840;DHT22;2434;48.486;7.964;2022-08-04T12:21:33;35.60;11.30
4840;DHT22;2434;48.486;7.964;2022-08-04T12:24:07;35.60;11.10
4840;DHT22;2434;48.486;7.964;2022-08-04T12:26:43;35.40;10.60
4840;DHT22;2434;48.486;7.964;2022-08-04T12:29:13;35.30;10.80
4840;DHT22;2434;48.486;7.964;2022-08-04T12:31:46;35.10;12.30
4840;DHT22;2434;48.486;7.964;2022-08-04T12:34:19;35.00;10.90
4840;DHT22;2434;48.486;7.964;2022-08-04T12:37:01;35.10;11.10
4840;DHT22;2434;48.486;7.964;2022-08-04T12:39:34;34.90;10.50
4840;DHT22;2434;48.486;7.964;2022-08-04T12:42:32;35.00;12.00
4840;DHT22;2434;48.486;7.964;2022-08-04T12:45:06;35.00;11.70
4840;DHT22;2434;48.486;7.964;2022-08-04T12:47:36;35.00;11.20
4840;DHT22;2434;48.486;7.964;2022-08-04T12:50:08;35.30;11.50
4840;DHT22;2434;48.486;7.964;2022-08-04T12:52:42;35.30;11.50
4840;DHT22;2434;48.486;7.964;2022-08-04T12:55:32;35.30;10.70
4840;DHT22;2434;48.486;7.964;2022-08-04T12:58:11;35.30;11.30
4840;DHT22;2434;48.486;7.964;2022-08-04T13:00:43;35.30;10.90
4840;DHT22;2434;48.486;7.964;2022-08-04T13:03:16;35.40;10.70
4840;DHT22;2434;48.486;7.964;2022-08-04T13:05:45;35.30;10.60
4840;DHT22;2434;48.486;7.964;2022-08-04T13:08:19;35.40;10.60
4840;DHT22;2434;48.486;7.964;2022-08-04T13:10:52;35.50;10.50
4840;DHT22;2434;48.486;7.964;2022-08-04T13:13:26;35.70;10.60
4840;DHT22;2434;48.486;7.964;2022-08-04T13:15:57;35.60;10.30
4840;DHT22;2434;48.486;7.964;2022-08-04T13:18:28;35.70;9.50
4840;DHT22;2434;48.486;7.964;2022-08-04T13:21:09;35.50;9.70
4840;DHT22;2434;48.486;7.964;2022-08-04T13:23:50;35.60;10.50
4840;DHT22;2434;48.486;7.964;2022-08-04T13:26:48;35.60;10.30
4840;DHT22;2434;48.486;7.964;2022-08-04T13:29:23;35.60;12.90
4840;DHT22;2434;48.486;7.964;2022-08-04T13:32:16;35.80;12.00
4840;DHT22;2434;48.486;7.964;2022-08-04T13:34:47;36.00;11.80
4840;DHT22;2434;48.486;7.964;2022-08-04T13:37:22;36.30;11.40
4840;DHT22;2434;48.486;7.964;2022-08-04T13:39:53;36.20;10.30
4840;DHT22;2434;48.486;7.964;2022-08-04T13:42:26;36.30;11.60
4840;DHT22;2434;48.486;7.964;2022-08-04T13:44:57;36.20;10.40
4840;DHT22;2434;48.486;7.964;2022-08-04T13:47:29;36.30;10.20
4840;DHT22;2434;48.486;7.964;2022-08-04T13:50:11;36.20;9.70
4840;DHT22;2434;48.486;7.964;2022-08-04T13:52:41;36.30;10.00
4840;DHT22;2434;48.486;7.964;2022-08-04T13:55:18;35.90;9.40
4840;DHT22;2434;48.486;7.964;2022-08-04T13:57:51;36.00;10.10
4840;DHT22;2434;48.486;7.964;2022-08-04T14:00:22;36.20;10.10
4840;DHT22;2434;48.486;7.964;2022-08-04T14:03:00;36.20;9.60
4840;DHT22;2434;48.486;7.964;2022-08-04T14:06:06;35.80;9.10
4840;DHT22;2434;48.486;7.964;2022-08-04T14:08:45;35.80;9.10
4840;DHT22;2434;48.486;7.964;2022-08-04T14:11:14;35.90;9.40
4840;DHT22;2434;48.486;7.964;2022-08-04T14:14:14;35.80;9.90
4840;DHT22;2434;48.486;7.964;2022-08-04T14:16:56;35.80;9.30
4840;DHT22;2434;48.486;7.964;2022-08-04T14:19:26;36.00;9.80
4840;DHT22;2434;48.486;7.964;2022-08-04T14:22:02;35.90;7.90
4840;DHT22;2434;48.486;7.964;2022-08-04T14:24:31;35.90;8.30
4840;DHT22;2434;48.486;7.964;2022-08-04T14:27:00;36.00;8.50
4840;DHT22;2434;48.486;7.964;2022-08-04T14:29:37;35.90;8.00
4840;DHT22;2434;48.486;7.964;2022-08-04T14:32:07;35.90;8.80
4840;DHT22;2434;48.486;7.964;2022-08-04T14:34:42;35.90;7.90
4840;DHT22;2434;48.486;7.964;2022-08-04T14:37:15;35.80;8.80
4840;DHT22;2434;48.486;7.964;2022-08-04T14:39:48;35.90;8.20
4840;DHT22;2434;48.486;7.964;2022-08-04T14:42:41;36.00;9.10
4840;DHT22;2434;48.486;7.964;2022-08-04T14:45:11;36.00;8.30
4840;DHT22;2434;48.486;7.964;2022-08-04T14:47:41;35.90;7.90
4840;DHT22;2434;48.486;7.964;2022-08-04T14:50:19;35.90;7.80
4840;DHT22;2434;48.486;7.964;2022-08-04T14:53:02;36.20;8.20
4840;DHT22;2434;48.486;7.964;2022-08-04T14:55:31;36.20;9.00
4840;DHT22;2434;48.486;7.964;2022-08-04T14:58:00;36.20;9.70
4840;DHT22;2434;48.486;7.964;2022-08-04T15:00:51;36.30;9.40
4840;DHT22;2434;48.486;7.964;2022-08-04T15:03:20;36.00;9.20
4840;DHT22;2434;48.486;7.964;2022-08-04T15:05:49;36.20;9.40
4840;DHT22;2434;48.486;7.964;2022-08-04T15:08:30;36.20;8.60
4840;DHT22;2434;48.486;7.964;2022-08-04T15:10:59;36.10;8.70
4840;DHT22;2434;48.486;7.964;2022-08-04T15:13:29;36.00;9.30
4840;DHT22;2434;48.486;7.964;2022-08-04T15:15:59;36.20;9.30
4840;DHT22;2434;48.486;7.964;2022-08-04T15:18:35;36.10;9.30
4840;DHT22;2434;48.486;7.964;2022-08-04T15:21:06;36.20;9.20
4840;DHT22;2434;48.486;7.964;2022-08-04T15:23:35;36.20;8.50
4840;DHT22;2434;48.486;7.964;2022-08-04T15:26:11;36.00;9.30
4840;DHT22;2434;48.486;7.964;2022-08-04T15:28:56;36.10;9.40
4840;DHT22;2434;48.486;7.964;2022-08-04T15:31:27;36.20;9.40
4840;DHT22;2434;48.486;7.964;2022-08-04T15:34:19;36.20;8.60
4840;DHT22;2434;48.486;7.964;2022-08-04T15:36:52;36.10;9.10
4840;DHT22;2434;48.486;7.964;2022-08-04T15:39:32;36.00;9.00
4840;DHT22;2434;48.486;7.964;2022-08-04T15:42:13;36.10;9.10
4840;DHT22;2434;48.486;7.964;2022-08-04T15:45:14;36.00;10.20
4840;DHT22;2434;48.486;7.964;2022-08-04T15:51:01;36.00;9.50
4840;DHT22;2434;48.486;7.964;2022-08-04T15:56:50;36.10;9.40
4840;DHT22;2434;48.486;7.964;2022-08-04T16:00:00;36.20;9.00
4840;DHT22;2434;48.486;7.964;2022-08-04T16:02:41;36.20;9.80
4840;DHT22;2434;48.486;7.964;2022-08-04T16:05:30;36.10;10.30
4840;DHT22;2434;48.486;7.964;2022-08-04T16:08:13;36.10;9.50
4840;DHT22;2434;48.486;7.964;2022-08-04T16:10:45;36.20;10.00
4840;DHT22;2434;48.486;7.964;2022-08-04T16:13:16;36.10;10.70
4840;DHT22;2434;48.486;7.964;2022-08-04T16:15:50;36.10;10.00
4840;DHT22;2434;48.486;7.964;2022-08-04T16:18:36;36.00;10.10
4840;DHT22;2434;48.486;7.964;2022-08-04T16:21:17;36.00;11.10
4840;DHT22;2434;48.486;7.964;2022-08-04T16:24:09;36.00;9.80
4840;DHT22;2434;48.486;7.964;2022-08-04T16:26:44;36.00;10.40
4840;DHT22;2434;48.486;7.964;2022-08-04T16:29:43;35.90;10.00
4840;DHT22;2434;48.486;7.964;2022-08-04T16:32:20;35.90;10.00
4840;DHT22;2434;48.486;7.964;2022-08-04T16:34:55;35.90;10.90
4840;DHT22;2434;48.486;7.964;2022-08-04T16:37:32;35.90;10.50
4840;DHT22;2434;48.486;7.964;2022-08-04T16:40:27;35.90;10.20
4840;DHT22;2434;48.486;7.964;2022-08-04T16:43:07;35.90;9.90
4840;DHT22;2434;48.486;7.964;2022-08-04T16:45:54;35.90;9.90
4840;DHT22;2434;48.486;7.964;2022-08-04T16:48:26;35.80;9.50
4840;DHT22;2434;48.486;7.964;2022-08-04T16:50:59;35.80;9.40
4840;DHT22;2434;48.486;7.964;2022-08-04T16:53:38;35.80;9.60
4840;DHT22;2434;48.486;7.964;2022-08-04T16:56:30;35.80;9.80
4840;DHT22;2434;48.486;7.964;2022-08-04T16:59:08;35.70;9.70
4840;DHT22;2434;48.486;7.964;2022-08-04T17:01:37;35.70;11.90
4840;DHT22;2434;48.486;7.964;2022-08-04T17:04:12;35.70;10.30
4840;DHT22;2434;48.486;7.964;2022-08-04T17:06:42;35.80;12.20
4840;DHT22;2434;48.486;7.964;2022-08-04T17:09:15;35.80;12.20
4840;DHT22;2434;48.486;7.964;2022-08-04T17:11:46;35.80;11.40
4840;DHT22;2434;48.486;7.964;2022-08-04T17:14:20;35.70;12.20
4840;DHT22;2434;48.486;7.964;2022-08-04T17:16:49;35.60;12.80
4840;DHT22;2434;48.486;7.964;2022-08-04T17:19:19;35.70;13.50
4840;DHT22;2434;48.486;7.964;2022-08-04T17:21:55;35.80;13.40
4840;DHT22;2434;48.486;7.964;2022-08-04T17:24:34;35.80;13.20
4840;DHT22;2434;48.486;7.964;2022-08-04T17:27:03;35.80;13.00
4840;DHT22;2434;48.486;7.964;2022-08-04T17:29:51;35.80;12.60
4840;DHT22;2434;48.486;7.964;2022-08-04T17:32:20;35.70;13.20
4840;DHT22;2434;48.486;7.964;2022-08-04T17:34:51;35.70;13.80
4840;DHT22;2434;48.486;7.964;2022-08-04T17:37:21;35.60;14.70
4840;DHT22;2434;48.486;7.964;2022-08-04T17:40:10;35.50;15.30
4840;DHT22;2434;48.486;7.964;2022-08-04T17:42:39;35.20;14.90
4840;DHT22;2434;48.486;7.964;2022-08-04T17:45:14;35.10;15.50
4840;DHT22;2434;48.486;7.964;2022-08-04T17:48:06;35.10;15.50
4840;DHT22;2434;48.486;7.964;2022-08-04T17:50:35;35.30;16.40
4840;DHT22;2434;48.486;7.964;2022-08-04T17:53:10;35.30;16.70
4840;DHT22;2434;48.486;7.964;2022-08-04T17:55:43;35.10;17.40